sensor_id;sensor_type;location;lat;lon;timestamp;P1;durP1;ratioP1;P2;durP2;ratioP2
10410;SDS011;5251;52.112;8.606;2023-02-13T00:02:15;12.43;;;10.45;;
10410;SDS011;5251;52.112;8.606;2023-02-13T00:04:41;13.20;;;10.55;;
10410;SDS011;5251;52.112;8.606;2023-02-13T00:07:09;11.15;;;9.88;;
10410;SDS011;5251;52.112;8.606;2023-02-13T00:09:36;11.25;;;10.02;;
10410;SDS011;5251;52.112;8.606;2023-02-13T00:12:02;13.02;;;10.60;;
10410;SDS011;5251;52.112;8.606;2023-02-13T00:14:28;14.30;;;11.00;;
10410;SDS011;5251;52.112;8.606;2023-02-13T00:16:54;12.82;;;10.88;;
10410;SDS011;5251;52.112;8.606;2023-02-13T00:19:19;14.75;;;12.02;;
10410;SDS011;5251;52.112;8.606;2023-02-13T00:21:45;12.20;;;10.65;;
10410;SDS011;5251;52.112;8.606;2023-02-13T00:24:10;12.10;;;10.73;;
10410;SDS011;5251;52.112;8.606;2023-02-13T00:26:36;12.75;;;10.75;;
10410;SDS011;5251;52.112;8.606;2023-02-13T00:29:03;13.02;;;10.80;;
10410;SDS011;5251;52.112;8.606;2023-02-13T00:31:29;13.20;;;10.63;;
10410;SDS011;5251;52.112;8.606;2023-02-13T00:33:55;11.82;;;10.27;;
10410;SDS011;5251;52.112;8.606;2023-02-13T00:36:21;11.68;;;10.10;;
10410;SDS011;5251;52.112;8.606;2023-02-13T00:38:47;11.75;;;9.93;;
10410;SDS011;5251;52.112;8.606;2023-02-13T00:41:13;12.40;;;10.05;;
10410;SDS011;5251;52.112;8.606;2023-02-13T00:43:43;12.45;;;10.23;;
10410;SDS011;5251;52.112;8.606;2023-02-13T00:46:10;12.70;;;11.00;;
10410;SDS011;5251;52.112;8.606;2023-02-13T00:48:36;14.90;;;11.05;;
10410;SDS011;5251;52.112;8.606;2023-02-13T00:51:02;13.95;;;11.25;;
10410;SDS011;5251;52.112;8.606;2023-02-13T00:53:29;12.05;;;10.65;;
10410;SDS011;5251;52.112;8.606;2023-02-13T00:55:55;13.35;;;11.00;;
10410;SDS011;5251;52.112;8.606;2023-02-13T00:58:20;12.45;;;10.60;;
10410;SDS011;5251;52.112;8.606;2023-02-13T01:00:47;12.98;;;10.52;;
10410;SDS011;5251;52.112;8.606;2023-02-13T01:03:13;11.40;;;9.45;;
10410;SDS011;5251;52.112;8.606;2023-02-13T01:05:40;11.30;;;9.25;;
10410;SDS011;5251;52.112;8.606;2023-02-13T01:08:06;10.85;;;9.10;;
10410;SDS011;5251;52.112;8.606;2023-02-13T01:10:31;10.75;;;9.18;;
10410;SDS011;5251;52.112;8.606;2023-02-13T01:12:57;11.75;;;9.85;;
10410;SDS011;5251;52.112;8.606;2023-02-13T01:15:23;10.15;;;9.07;;
10410;SDS011;5251;52.112;8.606;2023-02-13T01:17:49;11.13;;;9.30;;
10410;SDS011;5251;52.112;8.606;2023-02-13T01:20:18;12.50;;;9.45;;
10410;SDS011;5251;52.112;8.606;2023-02-13T01:22:43;11.07;;;9.05;;
10410;SDS011;5251;52.112;8.606;2023-02-13T01:25:09;10.30;;;8.57;;
10410;SDS011;5251;52.112;8.606;2023-02-13T01:27:35;11.20;;;8.90;;
10410;SDS011;5251;52.112;8.606;2023-02-13T01:30:03;12.38;;;9.10;;
10410;SDS011;5251;52.112;8.606;2023-02-13T01:32:30;11.65;;;8.65;;
10410;SDS011;5251;52.112;8.606;2023-02-13T01:34:56;11.57;;;9.38;;
10410;SDS011;5251;52.112;8.606;2023-02-13T01:37:21;10.55;;;9.05;;
10410;SDS011;5251;52.112;8.606;2023-02-13T01:39:47;10.90;;;9.70;;
10410;SDS011;5251;52.112;8.606;2023-02-13T01:42:14;12.90;;;10.25;;
10410;SDS011;5251;52.112;8.606;2023-02-13T01:44:45;12.32;;;10.38;;
10410;SDS011;5251;52.112;8.606;2023-02-13T01:50:07;10.95;;;9.45;;
10410;SDS011;5251;52.112;8.606;2023-02-13T01:52:37;12.70;;;9.75;;
10410;SDS011;5251;52.112;8.606;2023-02-13T01:55:06;12.50;;;9.70;;
10410;SDS011;5251;52.112;8.606;2023-02-13T01:57:34;10.95;;;9.38;;
10410;SDS011;5251;52.112;8.606;2023-02-13T02:00:07;11.07;;;8.70;;
10410;SDS011;5251;52.112;8.606;2023-02-13T02:02:36;9.50;;;8.02;;
10410;SDS011;5251;52.112;8.606;2023-02-13T02:05:03;8.25;;;7.03;;
10410;SDS011;5251;52.112;8.606;2023-02-13T02:07:31;9.43;;;7.22;;
10410;SDS011;5251;52.112;8.606;2023-02-13T02:09:58;9.73;;;7.65;;
10410;SDS011;5251;52.112;8.606;2023-02-13T02:12:32;9.57;;;6.70;;
10410;SDS011;5251;52.112;8.606;2023-02-13T02:15:16;9.52;;;7.05;;
10410;SDS011;5251;52.112;8.606;2023-02-13T02:17:42;7.97;;;6.10;;
10410;SDS011;5251;52.112;8.606;2023-02-13T02:39:28;6.30;;;5.10;;
10410;SDS011;5251;52.112;8.606;2023-02-13T02:42:04;6.10;;;4.93;;
10410;SDS011;5251;52.112;8.606;2023-02-13T02:47:29;5.50;;;4.43;;
10410;SDS011;5251;52.112;8.606;2023-02-13T02:56:00;6.53;;;4.65;;
10410;SDS011;5251;52.112;8.606;2023-02-13T02:58:55;6.43;;;4.72;;
10410;SDS011;5251;52.112;8.606;2023-02-13T03:01:46;6.93;;;4.82;;
10410;SDS011;5251;52.112;8.606;2023-02-13T03:04:36;6.13;;;5.03;;
10410;SDS011;5251;52.112;8.606;2023-02-13T03:07:23;5.80;;;4.30;;
10410;SDS011;5251;52.112;8.606;2023-02-13T03:09:55;6.75;;;5.03;;
10410;SDS011;5251;52.112;8.606;2023-02-13T03:13:00;5.30;;;4.20;;
10410;SDS011;5251;52.112;8.606;2023-02-13T03:15:51;6.13;;;4.50;;
10410;SDS011;5251;52.112;8.606;2023-02-13T03:18:37;6.47;;;4.25;;
10410;SDS011;5251;52.112;8.606;2023-02-13T03:27:20;7.10;;;4.63;;
10410;SDS011;5251;52.112;8.606;2023-02-13T03:33:00;6.07;;;4.28;;
10410;SDS011;5251;52.112;8.606;2023-02-13T03:35:36;6.40;;;4.40;;
10410;SDS011;5251;52.112;8.606;2023-02-13T03:38:51;6.55;;;4.75;;
10410;SDS011;5251;52.112;8.606;2023-02-13T03:41:29;6.28;;;4.38;;
10410;SDS011;5251;52.112;8.606;2023-02-13T03:46:44;6.65;;;4.95;;
10410;SDS011;5251;52.112;8.606;2023-02-13T03:49:17;6.72;;;4.93;;
10410;SDS011;5251;52.112;8.606;2023-02-13T03:52:18;7.43;;;5.28;;
10410;SDS011;5251;52.112;8.606;2023-02-13T03:54:54;8.27;;;5.95;;
10410;SDS011;5251;52.112;8.606;2023-02-13T03:57:42;10.68;;;6.82;;
10410;SDS011;5251;52.112;8.606;2023-02-13T04:00:33;10.23;;;7.20;;
10410;SDS011;5251;52.112;8.606;2023-02-13T04:05:46;11.25;;;7.47;;
10410;SDS011;5251;52.112;8.606;2023-02-13T04:08:14;10.23;;;7.60;;
10410;SDS011;5251;52.112;8.606;2023-02-13T04:10:42;10.77;;;7.70;;
10410;SDS011;5251;52.112;8.606;2023-02-13T04:13:17;13.02;;;7.35;;
10410;SDS011;5251;52.112;8.606;2023-02-13T04:15:50;11.27;;;7.95;;
10410;SDS011;5251;52.112;8.606;2023-02-13T04:18:22;10.63;;;7.70;;
10410;SDS011;5251;52.112;8.606;2023-02-13T04:20:51;10.65;;;7.45;;
10410;SDS011;5251;52.112;8.606;2023-02-13T04:23:17;12.50;;;8.02;;
10410;SDS011;5251;52.112;8.606;2023-02-13T04:25:44;12.93;;;8.32;;
10410;SDS011;5251;52.112;8.606;2023-02-13T04:28:14;10.88;;;7.85;;
10410;SDS011;5251;52.112;8.606;2023-02-13T04:30:40;11.27;;;8.13;;
10410;SDS011;5251;52.112;8.606;2023-02-13T04:33:06;13.68;;;8.32;;
10410;SDS011;5251;52.112;8.606;2023-02-13T04:35:31;11.95;;;8.00;;
10410;SDS011;5251;52.112;8.606;2023-02-13T04:37:57;11.80;;;8.32;;
10410;SDS011;5251;52.112;8.606;2023-02-13T04:40:23;11.63;;;8.50;;
10410;SDS011;5251;52.112;8.606;2023-02-13T04:42:48;13.50;;;8.55;;
10410;SDS011;5251;52.112;8.606;2023-02-13T04:45:14;11.48;;;8.55;;
10410;SDS011;5251;52.112;8.606;2023-02-13T04:47:40;13.52;;;8.85;;
10410;SDS011;5251;52.112;8.606;2023-02-13T04:50:06;12.70;;;9.18;;
10410;SDS011;5251;52.112;8.606;2023-02-13T04:52:32;13.43;;;9.30;;
10410;SDS011;5251;52.112;8.606;2023-02-13T04:54:58;12.57;;;8.70;;
10410;SDS011;5251;52.112;8.606;2023-02-13T04:57:24;11.05;;;8.27;;
10410;SDS011;5251;52.112;8.606;2023-02-13T04:59:49;13.52;;;8.85;;
10410;SDS011;5251;52.112;8.606;2023-02-13T05:02:15;13.50;;;8.82;;
10410;SDS011;5251;52.112;8.606;2023-02-13T05:04:40;14.27;;;9.18;;
10410;SDS011;5251;52.112;8.606;2023-02-13T05:07:06;12.50;;;8.48;;
10410;SDS011;5251;52.112;8.606;2023-02-13T05:09:32;12.85;;;8.50;;
10410;SDS011;5251;52.112;8.606;2023-02-13T05:11:57;11.88;;;8.63;;
10410;SDS011;5251;52.112;8.606;2023-02-13T05:14:23;12.63;;;8.77;;
10410;SDS011;5251;52.112;8.606;2023-02-13T05:16:48;10.63;;;7.97;;
10410;SDS011;5251;52.112;8.606;2023-02-13T05:19:14;11.57;;;8.07;;
10410;SDS011;5251;52.112;8.606;2023-02-13T05:21:41;11.95;;;7.80;;
10410;SDS011;5251;52.112;8.606;2023-02-13T05:24:25;10.13;;;7.47;;
10410;SDS011;5251;52.112;8.606;2023-02-13T05:26:50;11.63;;;8.20;;
10410;SDS011;5251;52.112;8.606;2023-02-13T05:29:16;10.23;;;7.50;;
10410;SDS011;5251;52.112;8.606;2023-02-13T05:31:45;10.88;;;8.25;;
10410;SDS011;5251;52.112;8.606;2023-02-13T05:34:11;9.90;;;7.15;;
10410;SDS011;5251;52.112;8.606;2023-02-13T05:36:37;9.43;;;6.60;;
10410;SDS011;5251;52.112;8.606;2023-02-13T05:39:03;8.88;;;6.60;;
10410;SDS011;5251;52.112;8.606;2023-02-13T05:41:29;10.15;;;6.75;;
10410;SDS011;5251;52.112;8.606;2023-02-13T05:43:55;9.85;;;6.55;;
10410;SDS011;5251;52.112;8.606;2023-02-13T05:46:20;7.95;;;5.53;;
10410;SDS011;5251;52.112;8.606;2023-02-13T05:48:46;10.52;;;6.82;;
10410;SDS011;5251;52.112;8.606;2023-02-13T05:51:12;9.48;;;6.72;;
10410;SDS011;5251;52.112;8.606;2023-02-13T05:53:37;10.05;;;7.03;;
10410;SDS011;5251;52.112;8.606;2023-02-13T05:56:03;9.35;;;6.35;;
10410;SDS011;5251;52.112;8.606;2023-02-13T05:58:30;9.55;;;6.35;;
10410;SDS011;5251;52.112;8.606;2023-02-13T06:00:56;8.52;;;6.18;;
10410;SDS011;5251;52.112;8.606;2023-02-13T06:03:23;7.35;;;5.60;;
10410;SDS011;5251;52.112;8.606;2023-02-13T06:05:49;8.10;;;6.50;;
10410;SDS011;5251;52.112;8.606;2023-02-13T06:08:15;8.45;;;6.20;;
10410;SDS011;5251;52.112;8.606;2023-02-13T06:10:41;8.57;;;5.72;;
10410;SDS011;5251;52.112;8.606;2023-02-13T06:13:06;9.25;;;6.13;;
10410;SDS011;5251;52.112;8.606;2023-02-13T06:15:32;8.77;;;6.22;;
10410;SDS011;5251;52.112;8.606;2023-02-13T06:17:57;8.07;;;5.63;;
10410;SDS011;5251;52.112;8.606;2023-02-13T06:20:23;7.65;;;5.80;;
10410;SDS011;5251;52.112;8.606;2023-02-13T06:22:49;7.05;;;5.70;;
10410;SDS011;5251;52.112;8.606;2023-02-13T06:25:15;8.57;;;5.75;;
10410;SDS011;5251;52.112;8.606;2023-02-13T06:27:41;8.63;;;5.60;;
10410;SDS011;5251;52.112;8.606;2023-02-13T06:30:07;7.82;;;5.15;;
10410;SDS011;5251;52.112;8.606;2023-02-13T06:32:32;7.88;;;5.60;;
10410;SDS011;5251;52.112;8.606;2023-02-13T06:34:58;7.53;;;5.32;;
10410;SDS011;5251;52.112;8.606;2023-02-13T06:37:24;7.30;;;5.45;;
10410;SDS011;5251;52.112;8.606;2023-02-13T06:39:49;7.50;;;5.32;;
10410;SDS011;5251;52.112;8.606;2023-02-13T06:42:15;7.03;;;5.47;;
10410;SDS011;5251;52.112;8.606;2023-02-13T06:44:42;6.97;;;5.30;;
10410;SDS011;5251;52.112;8.606;2023-02-13T06:47:08;7.10;;;5.07;;
10410;SDS011;5251;52.112;8.606;2023-02-13T06:49:34;7.93;;;5.72;;
10410;SDS011;5251;52.112;8.606;2023-02-13T06:51:59;8.23;;;5.32;;
10410;SDS011;5251;52.112;8.606;2023-02-13T06:54:25;7.63;;;5.38;;
10410;SDS011;5251;52.112;8.606;2023-02-13T06:56:51;8.10;;;5.88;;
10410;SDS011;5251;52.112;8.606;2023-02-13T06:59:16;7.75;;;5.22;;
10410;SDS011;5251;52.112;8.606;2023-02-13T07:01:42;6.97;;;5.20;;
10410;SDS011;5251;52.112;8.606;2023-02-13T07:04:07;7.57;;;5.35;;
10410;SDS011;5251;52.112;8.606;2023-02-13T07:06:33;6.75;;;5.22;;
10410;SDS011;5251;52.112;8.606;2023-02-13T07:08:59;8.18;;;5.30;;
10410;SDS011;5251;52.112;8.606;2023-02-13T07:11:28;8.15;;;5.40;;
10410;SDS011;5251;52.112;8.606;2023-02-13T07:13:54;8.13;;;5.57;;
10410;SDS011;5251;52.112;8.606;2023-02-13T07:16:20;7.65;;;5.40;;
10410;SDS011;5251;52.112;8.606;2023-02-13T07:18:45;6.82;;;4.95;;
10410;SDS011;5251;52.112;8.606;2023-02-13T07:21:11;7.55;;;5.53;;
10410;SDS011;5251;52.112;8.606;2023-02-13T07:23:36;8.20;;;5.50;;
10410;SDS011;5251;52.112;8.606;2023-02-13T07:26:02;6.75;;;5.28;;
10410;SDS011;5251;52.112;8.606;2023-02-13T07:28:29;8.93;;;5.38;;
10410;SDS011;5251;52.112;8.606;2023-02-13T07:30:55;7.93;;;5.65;;
10410;SDS011;5251;52.112;8.606;2023-02-13T07:33:21;9.38;;;6.22;;
10410;SDS011;5251;52.112;8.606;2023-02-13T07:35:50;9.90;;;6.25;;
10410;SDS011;5251;52.112;8.606;2023-02-13T07:38:17;11.25;;;6.20;;
10410;SDS011;5251;52.112;8.606;2023-02-13T07:40:43;8.32;;;5.80;;
10410;SDS011;5251;52.112;8.606;2023-02-13T07:43:09;8.45;;;5.93;;
10410;SDS011;5251;52.112;8.606;2023-02-13T07:45:35;9.05;;;6.30;;
10410;SDS011;5251;52.112;8.606;2023-02-13T07:48:00;8.65;;;6.05;;
10410;SDS011;5251;52.112;8.606;2023-02-13T07:50:26;7.82;;;5.55;;
10410;SDS011;5251;52.112;8.606;2023-02-13T07:52:59;8.52;;;6.28;;
10410;SDS011;5251;52.112;8.606;2023-02-13T07:55:28;10.25;;;6.18;;
10410;SDS011;5251;52.112;8.606;2023-02-13T07:57:54;9.18;;;5.82;;
10410;SDS011;5251;52.112;8.606;2023-02-13T08:00:21;7.80;;;5.65;;
10410;SDS011;5251;52.112;8.606;2023-02-13T08:02:47;8.23;;;5.95;;
10410;SDS011;5251;52.112;8.606;2023-02-13T08:05:12;8.07;;;5.55;;
10410;SDS011;5251;52.112;8.606;2023-02-13T08:07:38;8.23;;;6.10;;
10410;SDS011;5251;52.112;8.606;2023-02-13T08:10:07;9.93;;;6.68;;
10410;SDS011;5251;52.112;8.606;2023-02-13T08:12:52;11.80;;;6.18;;
10410;SDS011;5251;52.112;8.606;2023-02-13T08:15:18;9.68;;;6.50;;
10410;SDS011;5251;52.112;8.606;2023-02-13T08:17:44;9.48;;;6.50;;
10410;SDS011;5251;52.112;8.606;2023-02-13T08:20:09;9.07;;;6.57;;
10410;SDS011;5251;52.112;8.606;2023-02-13T08:22:35;10.35;;;6.88;;
10410;SDS011;5251;52.112;8.606;2023-02-13T08:25:02;10.57;;;6.75;;
10410;SDS011;5251;52.112;8.606;2023-02-13T08:27:28;10.20;;;7.18;;
10410;SDS011;5251;52.112;8.606;2023-02-13T08:29:55;12.32;;;7.25;;
10410;SDS011;5251;52.112;8.606;2023-02-13T08:32:21;8.65;;;6.57;;
10410;SDS011;5251;52.112;8.606;2023-02-13T08:34:47;10.38;;;6.75;;
10410;SDS011;5251;52.112;8.606;2023-02-13T08:37:13;11.05;;;6.95;;
10410;SDS011;5251;52.112;8.606;2023-02-13T08:39:39;10.27;;;6.88;;
10410;SDS011;5251;52.112;8.606;2023-02-13T08:42:04;10.25;;;6.82;;
10410;SDS011;5251;52.112;8.606;2023-02-13T08:44:30;10.27;;;7.38;;
10410;SDS011;5251;52.112;8.606;2023-02-13T08:46:56;11.25;;;7.53;;
10410;SDS011;5251;52.112;8.606;2023-02-13T08:49:21;9.73;;;6.75;;
10410;SDS011;5251;52.112;8.606;2023-02-13T08:51:47;10.50;;;7.07;;
10410;SDS011;5251;52.112;8.606;2023-02-13T08:54:14;9.40;;;6.60;;
10410;SDS011;5251;52.112;8.606;2023-02-13T08:56:40;10.07;;;6.60;;
10410;SDS011;5251;52.112;8.606;2023-02-13T08:59:06;8.45;;;6.32;;
10410;SDS011;5251;52.112;8.606;2023-02-13T09:01:32;9.52;;;6.63;;
10410;SDS011;5251;52.112;8.606;2023-02-13T09:03:57;8.52;;;6.18;;
10410;SDS011;5251;52.112;8.606;2023-02-13T09:06:23;9.20;;;6.07;;
10410;SDS011;5251;52.112;8.606;2023-02-13T09:08:50;8.20;;;6.22;;
10410;SDS011;5251;52.112;8.606;2023-02-13T09:11:16;9.02;;;6.25;;
10410;SDS011;5251;52.112;8.606;2023-02-13T09:13:43;9.07;;;6.03;;
10410;SDS011;5251;52.112;8.606;2023-02-13T09:16:09;8.15;;;6.03;;
10410;SDS011;5251;52.112;8.606;2023-02-13T09:18:35;8.77;;;6.30;;
10410;SDS011;5251;52.112;8.606;2023-02-13T09:21:04;7.13;;;5.22;;
10410;SDS011;5251;52.112;8.606;2023-02-13T09:23:32;8.55;;;5.78;;
10410;SDS011;5251;52.112;8.606;2023-02-13T09:26:01;8.48;;;5.88;;
10410;SDS011;5251;52.112;8.606;2023-02-13T09:28:28;8.18;;;5.93;;
10410;SDS011;5251;52.112;8.606;2023-02-13T09:30:55;8.65;;;5.70;;
10410;SDS011;5251;52.112;8.606;2023-02-13T09:33:20;7.50;;;5.50;;
10410;SDS011;5251;52.112;8.606;2023-02-13T09:35:46;7.93;;;5.78;;
10410;SDS011;5251;52.112;8.606;2023-02-13T09:38:12;7.43;;;5.25;;
10410;SDS011;5251;52.112;8.606;2023-02-13T09:40:51;7.00;;;5.22;;
10410;SDS011;5251;52.112;8.606;2023-02-13T09:43:29;7.32;;;5.35;;
10410;SDS011;5251;52.112;8.606;2023-02-13T09:46:03;8.30;;;6.18;;
10410;SDS011;5251;52.112;8.606;2023-02-13T09:48:43;6.55;;;5.32;;
10410;SDS011;5251;52.112;8.606;2023-02-13T09:51:13;7.65;;;5.60;;
10410;SDS011;5251;52.112;8.606;2023-02-13T09:53:44;7.03;;;5.30;;
10410;SDS011;5251;52.112;8.606;2023-02-13T09:56:38;6.45;;;5.00;;
10410;SDS011;5251;52.112;8.606;2023-02-13T10:01:59;6.57;;;5.10;;
10410;SDS011;5251;52.112;8.606;2023-02-13T10:04:35;6.30;;;4.80;;
10410;SDS011;5251;52.112;8.606;2023-02-13T10:07:29;6.38;;;4.88;;
10410;SDS011;5251;52.112;8.606;2023-02-13T10:12:45;6.10;;;4.30;;
10410;SDS011;5251;52.112;8.606;2023-02-13T10:18:00;6.90;;;4.47;;
10410;SDS011;5251;52.112;8.606;2023-02-13T10:20:31;4.60;;;4.10;;
10410;SDS011;5251;52.112;8.606;2023-02-13T10:25:54;5.60;;;4.13;;
10410;SDS011;5251;52.112;8.606;2023-02-13T10:31:13;5.30;;;4.20;;
10410;SDS011;5251;52.112;8.606;2023-02-13T10:33:51;6.07;;;4.28;;
10410;SDS011;5251;52.112;8.606;2023-02-13T10:36:26;5.72;;;4.63;;
10410;SDS011;5251;52.112;8.606;2023-02-13T10:39:00;5.05;;;4.10;;
10410;SDS011;5251;52.112;8.606;2023-02-13T10:52:26;4.60;;;4.18;;
10410;SDS011;5251;52.112;8.606;2023-02-13T10:57:50;5.60;;;4.43;;
10410;SDS011;5251;52.112;8.606;2023-02-13T11:03:21;4.07;;;3.67;;
10410;SDS011;5251;52.112;8.606;2023-02-13T11:05:49;5.07;;;3.97;;
10410;SDS011;5251;52.112;8.606;2023-02-13T11:08:30;4.97;;;4.38;;
10410;SDS011;5251;52.112;8.606;2023-02-13T11:11:03;7.13;;;4.30;;
10410;SDS011;5251;52.112;8.606;2023-02-13T11:16:55;5.63;;;4.40;;
10410;SDS011;5251;52.112;8.606;2023-02-13T11:19:46;6.03;;;4.43;;
10410;SDS011;5251;52.112;8.606;2023-02-13T11:22:30;6.88;;;5.03;;
10410;SDS011;5251;52.112;8.606;2023-02-13T11:24:58;5.57;;;4.63;;
10410;SDS011;5251;52.112;8.606;2023-02-13T11:27:35;5.13;;;4.63;;
10410;SDS011;5251;52.112;8.606;2023-02-13T11:30:10;5.30;;;4.65;;
10410;SDS011;5251;52.112;8.606;2023-02-13T11:32:58;4.70;;;4.13;;
10410;SDS011;5251;52.112;8.606;2023-02-13T11:35:27;5.03;;;4.28;;
10410;SDS011;5251;52.112;8.606;2023-02-13T11:40:39;5.00;;;4.45;;
10410;SDS011;5251;52.112;8.606;2023-02-13T11:43:13;4.78;;;4.25;;
10410;SDS011;5251;52.112;8.606;2023-02-13T11:48:39;6.47;;;4.32;;
10410;SDS011;5251;52.112;8.606;2023-02-13T11:51:07;5.43;;;4.40;;
10410;SDS011;5251;52.112;8.606;2023-02-13T11:53:37;4.85;;;4.20;;
10410;SDS011;5251;52.112;8.606;2023-02-13T11:56:06;5.78;;;4.25;;
10410;SDS011;5251;52.112;8.606;2023-02-13T11:58:39;5.03;;;4.22;;
10410;SDS011;5251;52.112;8.606;2023-02-13T12:03:44;5.20;;;4.30;;
10410;SDS011;5251;52.112;8.606;2023-02-13T12:06:21;5.28;;;4.30;;
10410;SDS011;5251;52.112;8.606;2023-02-13T12:08:47;4.63;;;3.90;;
10410;SDS011;5251;52.112;8.606;2023-02-13T12:13:57;4.68;;;4.00;;
10410;SDS011;5251;52.112;8.606;2023-02-13T12:18:55;5.45;;;4.22;;
10410;SDS011;5251;52.112;8.606;2023-02-13T12:26:43;4.65;;;4.20;;
10410;SDS011;5251;52.112;8.606;2023-02-13T12:32:09;4.40;;;4.00;;
10410;SDS011;5251;52.112;8.606;2023-02-13T12:34:51;5.28;;;4.15;;
10410;SDS011;5251;52.112;8.606;2023-02-13T12:43:20;4.28;;;3.67;;
10410;SDS011;5251;52.112;8.606;2023-02-13T12:45:56;4.15;;;3.53;;
10410;SDS011;5251;52.112;8.606;2023-02-13T12:48:35;5.75;;;4.20;;
10410;SDS011;5251;52.112;8.606;2023-02-13T12:53:55;4.78;;;3.95;;
10410;SDS011;5251;52.112;8.606;2023-02-13T12:59:42;8.55;;;4.35;;
10410;SDS011;5251;52.112;8.606;2023-02-13T13:02:42;4.25;;;3.63;;
10410;SDS011;5251;52.112;8.606;2023-02-13T13:15:48;4.85;;;4.35;;
10410;SDS011;5251;52.112;8.606;2023-02-13T13:26:47;4.03;;;3.60;;
10410;SDS011;5251;52.112;8.606;2023-02-13T13:29:24;4.68;;;4.18;;
10410;SDS011;5251;52.112;8.606;2023-02-13T13:31:58;4.95;;;3.95;;
10410;SDS011;5251;52.112;8.606;2023-02-13T13:34:27;4.70;;;4.18;;
10410;SDS011;5251;52.112;8.606;2023-02-13T13:37:13;5.03;;;4.18;;
10410;SDS011;5251;52.112;8.606;2023-02-13T13:42:53;4.95;;;4.18;;
10410;SDS011;5251;52.112;8.606;2023-02-13T13:48:39;4.93;;;4.20;;
10410;SDS011;5251;52.112;8.606;2023-02-13T13:51:29;4.75;;;4.00;;
10410;SDS011;5251;52.112;8.606;2023-02-13T13:59:18;4.20;;;3.60;;
10410;SDS011;5251;52.112;8.606;2023-02-13T14:04:59;6.05;;;4.00;;
10410;SDS011;5251;52.112;8.606;2023-02-13T14:07:37;5.68;;;3.72;;
10410;SDS011;5251;52.112;8.606;2023-02-13T14:10:05;4.07;;;3.38;;
10410;SDS011;5251;52.112;8.606;2023-02-13T14:18:06;4.15;;;3.50;;
10410;SDS011;5251;52.112;8.606;2023-02-13T14:23:48;4.53;;;3.53;;
10410;SDS011;5251;52.112;8.606;2023-02-13T14:28:41;4.75;;;3.42;;
10410;SDS011;5251;52.112;8.606;2023-02-13T14:34:19;3.55;;;3.00;;
10410;SDS011;5251;52.112;8.606;2023-02-13T14:37:03;4.20;;;3.38;;
10410;SDS011;5251;52.112;8.606;2023-02-13T14:39:41;4.32;;;3.20;;
10410;SDS011;5251;52.112;8.606;2023-02-13T14:42:22;3.85;;;3.33;;
10410;SDS011;5251;52.112;8.606;2023-02-13T14:44:56;4.75;;;3.35;;
10410;SDS011;5251;52.112;8.606;2023-02-13T14:47:29;5.57;;;3.55;;
10410;SDS011;5251;52.112;8.606;2023-02-13T14:49:58;3.30;;;3.00;;
10410;SDS011;5251;52.112;8.606;2023-02-13T14:52:32;3.63;;;2.92;;
10410;SDS011;5251;52.112;8.606;2023-02-13T14:55:06;4.40;;;3.45;;
10410;SDS011;5251;52.112;8.606;2023-02-13T14:57:38;5.03;;;3.70;;
10410;SDS011;5251;52.112;8.606;2023-02-13T15:03:01;4.45;;;3.58;;
10410;SDS011;5251;52.112;8.606;2023-02-13T15:05:32;3.72;;;3.20;;
10410;SDS011;5251;52.112;8.606;2023-02-13T15:08:20;5.00;;;3.83;;
10410;SDS011;5251;52.112;8.606;2023-02-13T15:10:47;4.60;;;3.33;;
10410;SDS011;5251;52.112;8.606;2023-02-13T15:13:15;4.30;;;3.50;;
10410;SDS011;5251;52.112;8.606;2023-02-13T15:16:02;3.80;;;3.40;;
10410;SDS011;5251;52.112;8.606;2023-02-13T15:18:36;4.57;;;3.38;;
10410;SDS011;5251;52.112;8.606;2023-02-13T15:21:16;4.88;;;3.60;;
10410;SDS011;5251;52.112;8.606;2023-02-13T15:23:48;3.70;;;3.13;;
10410;SDS011;5251;52.112;8.606;2023-02-13T15:26:20;4.20;;;3.55;;
10410;SDS011;5251;52.112;8.606;2023-02-13T15:31:45;3.47;;;3.17;;
10410;SDS011;5251;52.112;8.606;2023-02-13T15:34:44;3.53;;;3.22;;
10410;SDS011;5251;52.112;8.606;2023-02-13T15:37:18;3.80;;;3.28;;
10410;SDS011;5251;52.112;8.606;2023-02-13T15:39:45;4.93;;;3.40;;
10410;SDS011;5251;52.112;8.606;2023-02-13T15:42:11;4.43;;;3.63;;
10410;SDS011;5251;52.112;8.606;2023-02-13T15:44:37;4.60;;;3.80;;
10410;SDS011;5251;52.112;8.606;2023-02-13T15:49:35;6.22;;;3.80;;
10410;SDS011;5251;52.112;8.606;2023-02-13T15:52:13;3.92;;;3.53;;
10410;SDS011;5251;52.112;8.606;2023-02-13T15:54:51;4.20;;;3.10;;
10410;SDS011;5251;52.112;8.606;2023-02-13T15:57:18;3.85;;;3.42;;
10410;SDS011;5251;52.112;8.606;2023-02-13T15:59:44;4.00;;;3.60;;
10410;SDS011;5251;52.112;8.606;2023-02-13T16:02:21;3.80;;;3.22;;
10410;SDS011;5251;52.112;8.606;2023-02-13T16:05:01;4.57;;;3.47;;
10410;SDS011;5251;52.112;8.606;2023-02-13T16:07:27;4.40;;;3.40;;
10410;SDS011;5251;52.112;8.606;2023-02-13T16:10:13;3.85;;;3.45;;
10410;SDS011;5251;52.112;8.606;2023-02-13T16:12:46;3.90;;;3.50;;
10410;SDS011;5251;52.112;8.606;2023-02-13T16:15:16;4.15;;;3.60;;
10410;SDS011;5251;52.112;8.606;2023-02-13T16:17:45;3.38;;;3.08;;
10410;SDS011;5251;52.112;8.606;2023-02-13T16:22:44;4.53;;;3.95;;
10410;SDS011;5251;52.112;8.606;2023-02-13T16:27:41;5.38;;;4.35;;
10410;SDS011;5251;52.112;8.606;2023-02-13T16:30:26;5.95;;;4.28;;
10410;SDS011;5251;52.112;8.606;2023-02-13T16:33:07;4.40;;;4.00;;
10410;SDS011;5251;52.112;8.606;2023-02-13T16:35:49;4.90;;;4.03;;
10410;SDS011;5251;52.112;8.606;2023-02-13T16:38:41;4.80;;;4.20;;
10410;SDS011;5251;52.112;8.606;2023-02-13T16:43:47;5.60;;;4.53;;
10410;SDS011;5251;52.112;8.606;2023-02-13T16:51:42;5.63;;;4.28;;
10410;SDS011;5251;52.112;8.606;2023-02-13T16:56:59;4.32;;;3.55;;
10410;SDS011;5251;52.112;8.606;2023-02-13T16:59:55;4.35;;;3.70;;
10410;SDS011;5251;52.112;8.606;2023-02-13T17:02:34;5.55;;;4.43;;
10410;SDS011;5251;52.112;8.606;2023-02-13T17:12:43;6.80;;;4.60;;
10410;SDS011;5251;52.112;8.606;2023-02-13T17:15:10;5.10;;;4.05;;
10410;SDS011;5251;52.112;8.606;2023-02-13T17:17:38;5.80;;;4.90;;
10410;SDS011;5251;52.112;8.606;2023-02-13T17:20:04;6.40;;;4.72;;
10410;SDS011;5251;52.112;8.606;2023-02-13T17:25:08;6.88;;;4.80;;
10410;SDS011;5251;52.112;8.606;2023-02-13T17:27:41;5.90;;;4.38;;
10410;SDS011;5251;52.112;8.606;2023-02-13T17:30:13;5.38;;;4.68;;
10410;SDS011;5251;52.112;8.606;2023-02-13T17:32:44;7.57;;;5.30;;
10410;SDS011;5251;52.112;8.606;2023-02-13T17:35:11;6.05;;;5.25;;
10410;SDS011;5251;52.112;8.606;2023-02-13T17:37:38;6.53;;;5.35;;
10410;SDS011;5251;52.112;8.606;2023-02-13T17:40:05;6.65;;;5.95;;
10410;SDS011;5251;52.112;8.606;2023-02-13T17:42:31;7.00;;;5.50;;
10410;SDS011;5251;52.112;8.606;2023-02-13T17:44:57;7.10;;;5.72;;
10410;SDS011;5251;52.112;8.606;2023-02-13T17:47:23;6.45;;;5.25;;
10410;SDS011;5251;52.112;8.606;2023-02-13T17:49:50;6.95;;;5.43;;
10410;SDS011;5251;52.112;8.606;2023-02-13T17:52:17;13.10;;;9.38;;
10410;SDS011;5251;52.112;8.606;2023-02-13T17:54:45;11.98;;;8.38;;
10410;SDS011;5251;52.112;8.606;2023-02-13T17:57:12;8.90;;;7.32;;
10410;SDS011;5251;52.112;8.606;2023-02-13T17:59:39;8.57;;;6.50;;
10410;SDS011;5251;52.112;8.606;2023-02-13T18:02:19;7.70;;;6.32;;
10410;SDS011;5251;52.112;8.606;2023-02-13T18:04:46;9.52;;;6.38;;
10410;SDS011;5251;52.112;8.606;2023-02-13T18:07:14;8.80;;;6.22;;
10410;SDS011;5251;52.112;8.606;2023-02-13T18:09:42;7.65;;;6.03;;
10410;SDS011;5251;52.112;8.606;2023-02-13T18:12:15;7.18;;;5.93;;
10410;SDS011;5251;52.112;8.606;2023-02-13T18:14:43;6.53;;;5.20;;
10410;SDS011;5251;52.112;8.606;2023-02-13T18:17:09;6.15;;;5.40;;
10410;SDS011;5251;52.112;8.606;2023-02-13T18:19:37;7.60;;;6.32;;
10410;SDS011;5251;52.112;8.606;2023-02-13T18:22:04;6.93;;;5.57;;
10410;SDS011;5251;52.112;8.606;2023-02-13T18:24:32;6.57;;;5.65;;
10410;SDS011;5251;52.112;8.606;2023-02-13T18:26:58;8.07;;;5.82;;
10410;SDS011;5251;52.112;8.606;2023-02-13T18:29:24;6.13;;;5.32;;
10410;SDS011;5251;52.112;8.606;2023-02-13T18:31:50;6.20;;;4.97;;